Time;durP1;ratioP1;P1;durP2;ratioP2;P2;SDS_P1;SDS_P2;PMS_P1;PMS_P2;Temp;Humidity;BMP_temperature;BMP_pressure;BME280_temperature;BME280_humidity;BME280_pressure;Samples;Min_cycle;Max_cycle;Signal;HPM_P1;HPM_P2
2022/08/02 02:38:34;;;;;;;2.85;2.65;;;21.80;52.90;;;;;;6266910;22;20223;-89
2022/08/02 02:41:04;;;;;;;2.83;2.63;;;21.70;52.90;;;;;;6139273;23;20197;-90
2022/08/02 02:43:33;;;;;;;2.97;2.67;;;21.80;53.00;;;;;;6140035;23;20566;-90
2022/08/02 02:46:00;;;;;;;2.92;2.72;;;21.70;52.90;;;;;;6115669;23;20165;-90
2022/08/02 02:48:26;;;;;;;2.83;2.63;;;21.70;53.00;;;;;;6115827;23;20206;-90
2022/08/02 02:50:52;;;;;;;2.60;2.40;;;21.70;53.00;;;;;;6115064;23;20173;-89
2022/08/02 02:53:18;;;;;;;2.90;2.70;;;21.70;52.90;;;;;;6139513;23;20587;-89
2022/08/02 02:55:45;;;;;;;2.70;2.50;;;21.70;53.00;;;;;;6116006;23;20142;-90
2022/08/02 02:58:12;;;;;;;2.60;2.40;;;21.70;53.00;;;;;;6114315;23;20221;-89
2022/08/02 03:03:19;;;;;;;2.80;2.60;;;21.70;53.00;;;;;;6144800;23;20601;-90
2022/08/02 03:05:46;;;;;;;2.83;2.63;;;21.80;53.10;;;;;;6114341;23;20482;-90
2022/08/02 03:08:14;;;;;;;2.55;2.35;;;21.70;53.00;;;;;;6139245;23;20155;-89
2022/08/02 03:10:43;;;;;;;2.90;2.58;;;21.70;53.00;;;;;;6113736;23;20476;-88
2022/08/02 03:13:09;;;;;;;2.83;2.63;;;21.70;53.00;;;;;;6114770;23;20154;-89
2022/08/02 03:15:37;;;;;;;2.88;2.67;;;21.70;53.00;;;;;;6112950;23;20180;-90
2022/08/02 03:18:03;;;;;;;3.00;2.70;;;21.70;53.00;;;;;;6103476;23;20199;-90
2022/08/02 03:20:30;;;;;;;2.70;2.50;;;21.70;53.70;;;;;;6079122;23;20160;-90
2022/08/02 03:22:57;;;;;;;3.10;2.80;;;21.70;53.10;;;;;;6078674;23;20156;-90
2022/08/02 03:25:22;;;;;;;2.85;2.65;;;21.70;53.10;;;;;;6097431;23;20261;-90
2022/08/02 03:27:48;;;;;;;2.88;2.67;;;21.70;53.10;;;;;;6097922;23;20541;-90
2022/08/02 03:30:17;;;;;;;2.55;2.35;;;21.70;53.10;;;;;;6122660;23;20226;-89
2022/08/02 03:32:45;;;;;;;2.70;2.50;;;21.70;53.10;;;;;;6098024;23;20149;-90
2022/08/02 03:35:14;;;;;;;2.40;2.20;;;21.70;53.20;;;;;;6121724;23;20152;-90
2022/08/02 03:37:44;;;;;;;2.80;2.60;;;21.70;53.10;;;;;;6122016;23;20152;-90
2022/08/02 03:40:10;;;;;;;2.92;2.70;;;21.60;53.10;;;;;;6135435;23;20683;-90
2022/08/02 03:42:39;;;;;;;2.58;2.38;;;21.70;53.10;;;;;;6102986;23;20164;-89
2022/08/02 03:45:05;;;;;;;2.70;2.50;;;21.70;53.20;;;;;;6079427;23;20228;-90
2022/08/02 03:47:32;;;;;;;2.75;2.55;;;21.70;53.20;;;;;;6079314;23;20620;-89
2022/08/02 03:49:59;;;;;;;3.20;2.90;;;21.70;53.20;;;;;;6078886;23;20152;-91
2022/08/02 03:52:25;;;;;;;2.70;2.50;;;21.70;53.20;;;;;;6077917;23;20155;-90
2022/08/02 03:54:52;;;;;;;3.08;2.80;;;21.60;53.20;;;;;;6075299;23;20581;-90
2022/08/02 03:57:18;;;;;;;2.85;2.65;;;21.70;53.20;;;;;;6077919;23;20160;-89
2022/08/02 03:59:46;;;;;;;2.90;2.60;;;21.70;53.20;;;;;;6078323;23;20558;-90
2022/08/02 04:02:13;;;;;;;2.60;2.40;;;21.70;53.20;;;;;;6079077;23;20615;-90
2022/08/02 04:04:41;;;;;;;2.70;2.50;;;21.60;53.20;;;;;;6078562;23;20196;-89
2022/08/02 04:07:07;;;;;;;2.90;2.70;;;21.70;53.30;;;;;;6078121;23;20172;-90
2022/08/02 04:09:32;;;;;;;2.83;2.63;;;21.60;53.20;;;;;;6092184;23;20151;-90
2022/08/02 04:11:59;;;;;;;2.80;2.60;;;21.60;53.20;;;;;;6138004;23;20154;-90
2022/08/02 04:14:25;;;;;;;2.78;2.58;;;21.60;53.30;;;;;;6162246;23;20130;-90
2022/08/02 04:16:58;;;;;;;2.60;2.40;;;21.60;53.30;;;;;;6137235;23;20227;-90
2022/08/02 04:19:30;;;;;;;2.72;2.53;;;21.60;53.30;;;;;;6137383;23;20147;-89
2022/08/02 04:21:58;;;;;;;2.75;2.55;;;21.60;53.30;;;;;;6139000;23;20171;-89
2022/08/02 04:24:31;;;;;;;2.70;2.50;;;21.60;53.30;;;;;;6161907;23;20126;-89
2022/08/02 04:26:57;;;;;;;2.72;2.53;;;21.70;53.30;;;;;;6138399;23;20197;-91
2022/08/02 04:29:23;;;;;;;2.42;2.22;;;21.60;53.30;;;;;;6139713;23;20153;-88
2022/08/02 04:31:51;;;;;;;2.50;2.30;;;21.60;53.30;;;;;;6139294;23;20225;-90
2022/08/02 04:34:23;;;;;;;2.92;2.65;;;21.60;53.40;;;;;;6139256;23;20205;-90
2022/08/02 04:36:48;;;;;;;2.58;2.38;;;21.60;53.30;;;;;;6139583;23;20605;-89
2022/08/02 04:39:14;;;;;;;2.50;2.30;;;21.60;53.30;;;;;;6138985;23;20280;-90
2022/08/02 04:41:42;;;;;;;2.60;2.40;;;21.70;53.40;;;;;;6138936;23;20147;-90
2022/08/02 04:44:09;;;;;;;2.80;2.60;;;21.60;53.40;;;;;;6139762;23;20158;-89
2022/08/02 04:46:37;;;;;;;2.60;2.40;;;21.60;53.50;;;;;;6138992;23;20518;-89
2022/08/02 04:49:05;;;;;;;2.80;2.60;;;21.60;53.40;;;;;;6163655;23;20574;-89
2022/08/02 04:51:35;;;;;;;2.42;2.22;;;21.60;53.50;;;;;;6163191;23;20127;-90
2022/08/02 04:54:02;;;;;;;2.30;2.00;;;21.50;53.50;;;;;;6138297;23;20142;-90
2022/08/02 04:56:28;;;;;;;2.67;2.47;;;21.60;53.70;;;;;;6138396;23;20186;-89
2022/08/02 04:58:57;;;;;;;2.72;2.53;;;21.60;53.60;;;;;;6138048;23;20146;-90
2022/08/02 05:01:25;;;;;;;2.53;2.33;;;21.60;53.50;;;;;;6138454;23;20185;-90
2022/08/02 05:03:51;;;;;;;2.65;2.45;;;21.60;53.90;;;;;;6138798;23;20234;-89
2022/08/02 05:06:18;;;;;;;2.70;2.50;;;21.60;54.40;;;;;;6164046;23;20555;-90
2022/08/02 05:08:46;;;;;;;2.30;2.10;;;21.50;54.40;;;;;;6103323;23;20604;-89
2022/08/02 05:11:14;;;;;;;2.40;2.20;;;21.50;55.00;;;;;;6078616;23;20155;-90
2022/08/02 05:13:42;;;;;;;2.50;2.30;;;21.40;55.40;;;;;;6102424;23;20152;-89
2022/08/02 05:16:11;;;;;;;2.40;2.20;;;21.30;55.80;;;;;;6079433;23;20144;-90
2022/08/02 05:18:37;;;;;;;2.20;2.00;;;21.30;56.20;;;;;;6078629;23;20288;-89
2022/08/02 05:21:03;;;;;;;2.67;2.47;;;21.20;56.40;;;;;;6078396;23;20230;-90
2022/08/02 05:23:30;;;;;;;2.30;2.10;;;21.20;56.70;;;;;;6079103;23;20163;-91
2022/08/02 05:25:56;;;;;;;2.17;1.98;;;21.10;56.90;;;;;;6079177;23;20157;-90
2022/08/02 05:28:24;;;;;;;2.30;2.10;;;21.00;57.00;;;;;;6078488;23;20267;-90
2022/08/02 05:30:57;;;;;;;2.35;2.15;;;21.00;57.20;;;;;;6103275;23;20167;-90
2022/08/02 05:33:26;;;;;;;2.15;1.95;;;21.00;57.40;;;;;;6102867;23;20502;-90
2022/08/02 05:35:52;;;;;;;2.30;2.10;;;20.90;57.60;;;;;;6079082;23;20231;-90
2022/08/02 05:38:18;;;;;;;2.38;2.17;;;20.90;57.60;;;;;;6078883;23;20276;-89
2022/08/02 05:40:45;;;;;;;1.90;1.80;;;20.90;58.00;;;;;;6151979;23;20227;-90
2022/08/02 05:43:14;;;;;;;2.00;1.90;;;20.90;58.10;;;;;;6113085;23;20155;-89
2022/08/02 05:45:42;;;;;;;2.05;1.90;;;20.80;58.30;;;;;;6137725;23;20157;-89
2022/08/02 05:48:10;;;;;;;2.13;1.95;;;20.80;58.40;;;;;;6137944;23;20197;-89
2022/08/02 05:50:38;;;;;;;2.15;2.00;;;20.70;58.40;;;;;;6114315;23;20150;-89
2022/08/02 05:53:13;;;;;;;2.20;2.00;;;20.70;58.60;;;;;;6161860;23;20154;-89
2022/08/02 05:55:41;;;;;;;1.90;1.80;;;20.80;58.80;;;;;;6114021;23;20149;-89
2022/08/02 05:58:19;;;;;;;1.98;1.88;;;20.70;58.90;;;;;;6113524;23;20486;-90
2022/08/02 06:00:45;;;;;;;2.20;2.00;;;20.70;59.10;;;;;;6114359;23;20190;-89
2022/08/02 06:03:30;;;;;;;2.10;2.00;;;20.70;59.20;;;;;;6113288;23;20161;-91
2022/08/02 06:06:05;;;;;;;2.30;2.10;;;20.60;59.20;;;;;;6116058;23;20649;-91
2022/08/02 06:08:36;;;;;;;2.38;2.17;;;20.60;59.30;;;;;;6137782;23;20162;-89
2022/08/02 06:11:02;;;;;;;2.05;1.95;;;20.60;59.40;;;;;;6138520;23;20555;-90
2022/08/02 06:13:28;;;;;;;2.17;1.98;;;20.60;59.50;;;;;;6137740;23;20128;-91
2022/08/02 06:15:58;;;;;;;2.03;1.92;;;20.50;59.50;;;;;;6112332;23;20197;-90
2022/08/02 06:18:26;;;;;;;2.35;2.15;;;20.50;59.60;;;;;;6114536;23;20189;-90
2022/08/02 06:20:52;;;;;;;2.33;2.13;;;20.50;59.80;;;;;;6112884;23;20159;-89
2022/08/02 06:23:21;;;;;;;2.10;2.00;;;20.50;59.90;;;;;;6113068;23;20178;-89
2022/08/02 06:25:54;;;;;;;1.98;1.88;;;20.50;59.90;;;;;;6113224;23;20174;-91
2022/08/02 06:28:33;;;;;;;2.50;2.30;;;20.40;60.00;;;;;;6113329;23;20621;-90
2022/08/02 06:31:07;;;;;;;1.90;1.80;;;20.40;60.10;;;;;;6139896;23;20131;-90
2022/08/02 06:33:33;;;;;;;2.05;1.95;;;20.50;60.10;;;;;;6139243;23;20126;-89
2022/08/02 06:36:15;;;;;;;2.03;1.90;;;20.40;60.20;;;;;;6136797;23;20170;-90
2022/08/02 06:38:43;;;;;;;2.28;2.10;;;20.40;60.30;;;;;;6113668;23;20151;-89
2022/08/02 06:41:44;;;;;;;2.30;2.13;;;20.40;60.30;;;;;;6166227;23;20162;-90
2022/08/02 06:44:13;;;;;;;2.45;2.25;;;20.50;60.40;;;;;;6155056;23;20159;-89
2022/08/02 06:46:39;;;;;;;1.98;1.88;;;20.40;60.40;;;;;;6083824;23;20239;-89
2022/08/02 06:49:10;;;;;;;1.90;1.80;;;20.40;60.40;;;;;;6082548;23;20182;-88
2022/08/02 06:51:46;;;;;;;2.08;1.92;;;20.40;60.50;;;;;;6085393;23;20152;-91
2022/08/02 06:54:37;;;;;;;1.92;1.83;;;20.30;60.50;;;;;;6083548;23;20163;-90
2022/08/02 06:57:14;;;;;;;1.92;1.83;;;20.40;60.50;;;;;;6072676;23;20164;-89
2022/08/02 07:00:15;;;;;;;2.60;1.90;;;20.40;60.60;;;;;;6051407;23;20156;-91
2022/08/02 07:02:51;;;;;;;2.35;1.85;;;20.40;60.50;;;;;;5933132;24;20163;-89
2022/08/02 07:05:36;;;;;;;1.90;1.80;;;20.40;60.60;;;;;;5926977;24;20168;-90
2022/08/02 07:08:07;;;;;;;2.00;1.90;;;20.40;60.70;;;;;;5882210;24;20252;-91
2022/08/02 07:10:47;;;;;;;2.22;2.03;;;20.40;60.70;;;;;;5903637;24;20156;-89
2022/08/02 07:13:17;;;;;;;2.00;1.90;;;20.40;60.70;;;;;;5908041;24;20153;-90
2022/08/02 07:15:45;;;;;;;1.92;1.83;;;20.40;60.90;;;;;;5907782;24;20155;-92
2022/08/02 07:18:14;;;;;;;2.20;2.00;;;20.40;60.80;;;;;;5960842;24;20343;-89
2022/08/02 07:20:41;;;;;;;2.40;2.20;;;20.40;60.80;;;;;;5977833;24;20182;-91
2022/08/02 07:23:08;;;;;;;2.08;1.90;;;20.40;60.80;;;;;;5975603;24;20505;-91
2022/08/02 07:25:35;;;;;;;2.00;1.90;;;20.40;60.80;;;;;;5927730;24;20258;-90
2022/08/02 07:28:05;;;;;;;1.80;1.70;;;20.50;60.90;;;;;;5929826;24;20185;-88
2022/08/02 07:30:49;;;;;;;2.17;1.98;;;20.50;60.90;;;;;;5955201;24;20157;-91
2022/08/02 07:33:19;;;;;;;2.20;2.10;;;20.50;60.90;;;;;;5924599;24;20161;-91
2022/08/02 07:35:57;;;;;;;2.20;2.00;;;20.60;60.90;;;;;;5886192;24;20173;-90
2022/08/02 07:38:52;;;;;;;2.13;2.03;;;20.50;60.80;;;;;;5884954;24;20248;-90
2022/08/02 07:41:51;;;;;;;;;;;;;;;;;;;;;
2022/08/02 07:44:33;;;;;;;;;;;;;;;;;;;;;
2022/08/02 07:47:23;;;;;;;2.30;2.10;;;20.50;60.70;;;;;;5894023;24;20184;-89
2022/08/02 07:50:01;;;;;;;2.05;1.95;;;20.60;60.60;;;;;;5891770;24;20156;-89
2022/08/02 07:52:28;;;;;;;2.05;1.95;;;20.60;60.40;;;;;;5908763;24;20555;-91
2022/08/02 07:54:59;;;;;;;2.10;2.00;;;20.60;60.20;;;;;;5892791;24;20162;-89
2022/08/02 07:57:58;;;;;;;2.22;2.05;;;20.70;60.00;;;;;;5953958;24;20157;-88
2022/08/02 08:00:24;;;;;;;1.85;1.75;;;20.80;60.00;;;;;;5862937;24;20192;-90
2022/08/02 08:06:03;;;;;;;2.22;2.03;;;20.90;59.60;;;;;;5876029;24;20181;-90
2022/08/02 08:08:50;;;;;;;2.50;2.30;;;21.00;59.30;;;;;;5880594;24;20198;-88
2022/08/02 08:11:33;;;;;;;2.22;2.10;;;21.10;59.10;;;;;;5867244;24;20212;-89
2022/08/02 08:17:33;;;;;;;3.22;2.10;;;21.30;58.60;;;;;;5897444;24;20161;-90
2022/08/02 08:20:13;;;;;;;2.40;2.20;;;21.30;58.50;;;;;;5786322;24;20729;-90
2022/08/02 08:22:52;;;;;;;4.45;2.30;;;21.30;58.30;;;;;;5815700;24;20162;-90
2022/08/02 08:26:09;;;;;;;;;;;;;;;;;;;;;
2022/08/02 08:29:35;;;;;;;2.80;2.35;;;21.50;58.00;;;;;;5705718;25;20238;-88
2022/08/02 08:32:32;;;;;;;2.63;2.42;;;21.50;57.70;;;;;;5724568;25;20166;-90
2022/08/02 08:35:29;;;;;;;2.40;2.08;;;21.50;57.60;;;;;;5700624;25;20169;-88
2022/08/02 08:39:01;;;;;;;2.35;2.15;;;21.60;57.60;;;;;;5718747;25;20209;-89
2022/08/02 08:42:02;;;;;;;4.72;2.35;;;21.60;57.60;;;;;;5726835;25;20195;-89
2022/08/02 08:44:32;;;;;;;5.53;2.20;;;21.70;57.50;;;;;;5728940;24;20176;-89
2022/08/02 08:47:37;;;;;;;5.75;2.10;;;21.70;57.70;;;;;;5779940;24;20354;-90
2022/08/02 08:51:05;;;;;;;5.57;2.38;;;21.70;57.60;;;;;;5788475;24;20449;-90
2022/08/02 08:54:03;;;;;;;3.95;2.13;;;21.80;57.50;;;;;;5676955;25;20525;-89
2022/08/02 08:57:08;;;;;;;3.28;2.10;;;21.80;57.40;;;;;;5675174;25;20233;-90
2022/08/02 08:59:38;;;;;;;5.05;2.20;;;21.80;57.50;;;;;;5696134;25;20167;-89
2022/08/02 09:02:19;;;;;;;4.15;2.45;;;21.80;57.30;;;;;;5618804;25;20183;-89
2022/08/02 09:04:46;;;;;;;5.15;2.20;;;21.90;57.30;;;;;;5614530;25;20173;-89
2022/08/02 09:07:14;;;;;;;3.75;2.22;;;21.80;57.30;;;;;;5550806;25;20226;-90
2022/08/02 09:09:46;;;;;;;2.05;1.85;;;21.80;57.40;;;;;;5551316;25;20180;-88
2022/08/02 09:12:13;;;;;;;4.43;2.13;;;21.80;57.40;;;;;;5598093;25;20221;-89
2022/08/02 09:14:42;;;;;;;4.68;2.10;;;21.90;57.30;;;;;;5605535;25;20168;-89
2022/08/02 09:17:15;;;;;;;4.95;2.33;;;21.90;57.20;;;;;;5669275;25;20254;-89
2022/08/02 09:19:47;;;;;;;3.75;2.15;;;21.80;57.40;;;;;;5719312;25;20174;-91
2022/08/02 09:22:13;;;;;;;5.95;2.20;;;21.80;57.50;;;;;;5720717;25;20675;-89
2022/08/02 09:24:48;;;;;;;7.80;2.20;;;21.90;57.50;;;;;;5702608;25;20170;-88
2022/08/02 09:27:20;;;;;;;3.65;1.80;;;21.90;57.50;;;;;;5747377;24;20182;-90
2022/08/02 09:29:56;;;;;;;9.40;2.38;;;21.90;57.10;;;;;;5850933;24;20589;-88
2022/08/02 09:32:28;;;;;;;5.68;2.17;;;21.90;57.30;;;;;;5939931;24;20155;-89
2022/08/02 09:34:57;;;;;;;3.92;2.33;;;21.90;57.90;;;;;;5937895;24;20163;-88
2022/08/02 09:37:27;;;;;;;4.10;2.10;;;21.90;57.10;;;;;;5916489;24;20601;-88
2022/08/02 09:40:02;;;;;;;3.22;2.00;;;22.00;57.00;;;;;;5972302;23;20206;-89
2022/08/02 09:42:38;;;;;;;2.00;1.90;;;22.10;56.70;;;;;;5969595;23;20158;-89
2022/08/02 09:45:07;;;;;;;2.25;2.00;;;22.10;56.60;;;;;;5966830;23;20165;-90
2022/08/02 09:47:35;;;;;;;7.38;2.15;;;22.10;56.50;;;;;;5965696;23;20186;-89
2022/08/02 09:50:01;;;;;;;3.00;2.00;;;22.10;56.40;;;;;;5980514;23;20201;-89
2022/08/02 09:52:28;;;;;;;5.03;2.10;;;22.10;56.40;;;;;;6022307;23;20533;-90
2022/08/02 09:54:54;;;;;;;5.97;2.38;;;22.10;56.40;;;;;;6021262;23;20205;-88
2022/08/02 09:57:28;;;;;;;2.00;1.85;;;22.10;56.40;;;;;;6022546;23;20168;-89
2022/08/02 09:59:58;;;;;;;5.00;2.03;;;22.10;56.30;;;;;;5995015;23;20301;-90
2022/08/02 10:02:26;;;;;;;1.98;1.70;;;22.10;56.20;;;;;;5943933;23;20162;-89
2022/08/02 10:04:56;;;;;;;3.60;1.90;;;22.20;56.20;;;;;;5961313;23;20175;-89
2022/08/02 10:07:33;;;;;;;3.17;2.03;;;22.20;56.10;;;;;;5966649;23;20182;-89
2022/08/02 10:10:04;;;;;;;3.08;2.05;;;22.10;56.20;;;;;;5970558;23;20598;-90
2022/08/02 10:12:30;;;;;;;2.45;1.83;;;22.20;56.20;;;;;;5985473;24;20279;-89
2022/08/02 10:14:57;;;;;;;2.28;1.80;;;22.20;56.10;;;;;;5986626;24;20529;-89
2022/08/02 10:17:22;;;;;;;3.15;1.90;;;22.20;55.90;;;;;;5984762;24;20203;-89
2022/08/02 10:19:48;;;;;;;2.55;1.83;;;22.30;55.70;;;;;;5984361;24;20159;-89
2022/08/02 10:22:37;;;;;;;2.28;1.80;;;22.30;55.70;;;;;;5985562;24;20558;-90
2022/08/02 10:25:06;;;;;;;3.63;1.73;;;22.30;55.80;;;;;;5986554;24;20597;-88
2022/08/02 10:27:33;;;;;;;3.55;1.60;;;22.30;55.70;;;;;;5985010;23;20187;-89
2022/08/02 10:30:01;;;;;;;1.80;1.70;;;22.30;55.50;;;;;;5985037;24;20159;-91
2022/08/02 10:32:35;;;;;;;1.85;1.67;;;22.30;55.50;;;;;;5928972;23;20159;-89
2022/08/02 10:35:07;;;;;;;3.05;2.00;;;22.30;55.70;;;;;;6076182;23;20163;-89
2022/08/02 10:37:35;;;;;;;2.95;1.58;;;22.30;55.40;;;;;;6077308;23;20153;-90
2022/08/02 10:40:01;;;;;;;1.98;1.77;;;22.30;55.50;;;;;;6077536;23;20192;-90
2022/08/02 10:42:46;;;;;;;2.47;1.67;;;22.30;55.20;;;;;;6078225;23;20282;-90
2022/08/02 10:45:15;;;;;;;2.38;1.70;;;22.30;55.10;;;;;;6107378;23;20211;-91
2022/08/02 10:48:02;;;;;;;1.70;1.60;;;22.30;55.10;;;;;;6133201;23;20202;-91
2022/08/02 10:50:59;;;;;;;3.45;1.65;;;22.30;55.10;;;;;;6132629;23;20148;-89
2022/08/02 10:53:30;;;;;;;2.55;1.60;;;22.30;55.10;;;;;;6158630;23;20150;-88
2022/08/02 10:55:59;;;;;;;2.65;1.73;;;22.40;54.70;;;;;;6108951;23;20246;-89
2022/08/02 10:58:28;;;;;;;1.58;1.48;;;22.40;54.80;;;;;;6134935;23;20152;-89
2022/08/02 11:00:54;;;;;;;1.70;1.60;;;22.40;54.80;;;;;;6147506;23;20597;-90
2022/08/02 11:03:34;;;;;;;2.90;1.50;;;22.40;54.80;;;;;;6102139;23;20170;-89
2022/08/02 11:06:05;;;;;;;3.28;1.80;;;22.30;55.00;;;;;;6079537;23;20152;-88
2022/08/02 11:08:32;;;;;;;2.80;1.83;;;22.30;54.70;;;;;;6083935;23;20639;-89
2022/08/02 11:10:59;;;;;;;1.92;1.63;;;22.30;54.90;;;;;;6081653;23;20207;-89
2022/08/02 11:13:28;;;;;;;1.90;1.80;;;22.40;54.80;;;;;;6058450;23;20152;-89
2022/08/02 11:16:00;;;;;;;1.70;1.60;;;22.40;54.50;;;;;;6082585;23;20152;-89
2022/08/02 11:19:02;;;;;;;2.00;1.63;;;22.50;54.50;;;;;;6079401;23;20592;-89
2022/08/02 11:21:36;;;;;;;1.67;1.58;;;22.40;54.30;;;;;;6081890;23;20162;-92
2022/08/02 11:24:23;;;;;;;2.00;1.80;;;22.50;54.10;;;;;;6011886;23;20166;-90
2022/08/02 11:26:52;;;;;;;3.42;1.55;;;22.50;53.80;;;;;;5989125;23;20187;-90
2022/08/02 11:29:21;;;;;;;2.75;1.50;;;22.50;53.80;;;;;;5967849;23;20210;-89
2022/08/02 11:31:48;;;;;;;1.60;1.50;;;22.50;53.80;;;;;;5989813;23;20155;-89
2022/08/02 11:34:15;;;;;;;1.80;1.48;;;22.50;53.70;;;;;;5991879;23;20158;-89
2022/08/02 11:36:46;;;;;;;2.45;1.70;;;22.50;53.70;;;;;;5997805;23;20165;-90
2022/08/02 11:39:12;;;;;;;2.22;1.58;;;22.50;53.80;;;;;;6021390;23;20157;-89
2022/08/02 11:41:39;;;;;;;1.50;1.40;;;22.50;53.80;;;;;;5999710;23;20149;-88
2022/08/02 11:44:09;;;;;;;2.08;1.63;;;22.50;53.80;;;;;;5999839;23;20165;-88
2022/08/02 11:46:37;;;;;;;1.90;1.23;;;22.50;53.70;;;;;;6022049;23;20169;-90
2022/08/02 11:49:11;;;;;;;1.50;1.40;;;22.60;53.70;;;;;;5997878;23;20195;-89
2022/08/02 11:51:39;;;;;;;2.58;1.48;;;22.50;53.70;;;;;;5997555;23;20178;-89
2022/08/02 11:54:10;;;;;;;2.28;1.40;;;22.60;53.30;;;;;;6028640;23;20153;-88
2022/08/02 11:56:39;;;;;;;1.50;1.40;;;22.60;53.00;;;;;;6055683;23;20543;-88
2022/08/02 11:59:17;;;;;;;1.40;1.30;;;22.60;53.00;;;;;;6055571;23;20156;-90
2022/08/02 12:01:43;;;;;;;2.63;1.52;;;22.60;52.70;;;;;;6044093;23;20718;-89
2022/08/02 12:04:08;;;;;;;2.00;1.30;;;22.60;52.90;;;;;;6021000;23;20157;-88
2022/08/02 12:06:35;;;;;;;1.30;1.20;;;22.60;52.60;;;;;;6020580;23;20313;-89
2022/08/02 12:09:05;;;;;;;1.50;1.40;;;22.60;52.40;;;;;;6045116;23;20596;-89
2022/08/02 12:11:33;;;;;;;1.60;1.25;;;22.70;52.40;;;;;;6021942;23;20163;-90
2022/08/02 12:13:59;;;;;;;1.70;1.40;;;22.70;52.30;;;;;;6048865;23;20141;-89
2022/08/02 12:22:23;;;;;;;1.73;1.50;;;22.70;52.20;;;;;;6054550;23;20676;-89
2022/08/02 12:24:53;;;;;;;1.30;1.20;;;22.70;51.90;;;;;;6053077;23;20168;-89
2022/08/02 12:27:36;;;;;;;2.63;1.73;;;22.70;52.00;;;;;;6043861;23;20212;-89
2022/08/02 12:30:06;;;;;;;1.50;1.40;;;22.70;52.50;;;;;;6076088;23;20585;-89
2022/08/02 12:32:33;;;;;;;1.20;1.10;;;22.60;51.70;;;;;;6122368;23;20193;-89
2022/08/02 12:35:14;;;;;;;1.42;1.30;;;22.70;51.50;;;;;;6139716;23;20466;-89
2022/08/02 12:37:43;;;;;;;1.35;1.25;;;22.70;51.50;;;;;;6138134;23;20590;-89
2022/08/02 12:40:18;;;;;;;1.35;1.27;;;22.70;51.40;;;;;;6146928;23;20667;-90
2022/08/02 12:42:49;;;;;;;1.40;1.30;;;22.70;51.50;;;;;;6141050;23;20149;-88
2022/08/02 12:45:20;;;;;;;1.40;1.30;;;22.70;51.50;;;;;;6140191;23;20636;-90
2022/08/02 12:47:51;;;;;;;1.70;1.10;;;22.70;51.40;;;;;;6139791;23;20177;-91
2022/08/02 12:50:36;;;;;;;1.20;1.10;;;22.70;51.40;;;;;;6146325;23;20149;-89
2022/08/02 12:57:21;;;;;;;1.40;1.30;;;22.70;51.30;;;;;;5978546;24;20180;-90
2022/08/02 13:03:31;;;;;;;1.25;1.15;;;22.70;51.20;;;;;;5991424;24;20162;-90
2022/08/02 13:06:34;;;;;;;1.17;1.10;;;22.70;51.40;;;;;;5963561;24;20232;-91
2022/08/02 13:13:04;;;;;;;1.60;1.35;;;22.70;51.00;;;;;;5894826;24;20200;-90
2022/08/02 13:15:41;;;;;;;1.10;1.02;;;22.80;51.00;;;;;;5823722;24;20163;-89
2022/08/02 13:18:48;;;;;;;1.30;1.20;;;22.80;51.00;;;;;;5767617;24;20168;-90
2022/08/02 13:21:47;;;;;;;1.40;1.30;;;22.80;50.70;;;;;;5670275;25;20198;-90
2022/08/02 13:24:40;;;;;;;1.33;1.25;;;22.80;50.50;;;;;;5645420;25;20226;-89
2022/08/02 13:27:18;;;;;;;1.20;1.10;;;22.90;50.40;;;;;;5662274;25;20164;-90
2022/08/02 13:29:51;;;;;;;1.23;1.13;;;22.90;50.40;;;;;;5669527;25;20162;-90
2022/08/02 13:32:22;;;;;;;1.40;1.30;;;22.90;50.30;;;;;;5571028;25;20241;-90
2022/08/02 13:34:51;;;;;;;2.28;1.40;;;22.90;50.30;;;;;;5610815;25;20511;-91
2022/08/02 13:37:29;;;;;;;1.40;1.30;;;22.90;50.10;;;;;;5611275;25;20209;-90
2022/08/02 13:39:57;;;;;;;1.50;1.40;;;23.00;50.00;;;;;;5609326;25;20287;-90
2022/08/02 13:42:29;;;;;;;1.08;1.08;;;22.90;50.00;;;;;;5677111;25;20170;-91
2022/08/02 13:45:05;;;;;;;1.10;1.10;;;23.00;50.10;;;;;;5762730;24;20189;-90
2022/08/02 13:47:52;;;;;;;1.00;1.00;;;22.90;50.10;;;;;;5764145;24;20603;-91
2022/08/02 13:50:19;;;;;;;1.40;1.30;;;23.00;50.10;;;;;;5797478;24;20159;-91
2022/08/02 13:52:50;;;;;;;1.40;1.30;;;23.00;50.00;;;;;;5839241;24;20306;-90
2022/08/02 13:55:30;;;;;;;1.65;1.08;;;22.90;50.10;;;;;;5881493;24;20245;-91
2022/08/02 13:57:57;;;;;;;1.30;1.20;;;23.00;50.10;;;;;;5986796;23;20195;-90
2022/08/02 14:00:28;;;;;;;1.40;1.30;;;22.90;50.00;;;;;;5908644;24;20499;-91
2022/08/02 14:02:56;;;;;;;1.15;1.10;;;22.90;49.90;;;;;;5929300;23;20163;-92
2022/08/02 14:05:29;;;;;;;1.10;1.10;;;22.90;49.80;;;;;;5964687;23;20163;-90
2022/08/02 14:07:59;;;;;;;1.20;1.10;;;23.00;49.90;;;;;;5965458;23;20192;-90
2022/08/02 14:10:25;;;;;;;2.63;1.10;;;23.00;49.80;;;;;;5931334;24;20160;-91
2022/08/02 14:12:55;;;;;;;1.25;1.10;;;22.90;49.90;;;;;;5938098;24;20191;-91
2022/08/02 14:15:26;;;;;;;1.35;1.25;;;23.00;49.80;;;;;;5937688;24;20635;-88
2022/08/02 14:17:58;;;;;;;1.27;1.17;;;23.00;49.70;;;;;;5982582;24;20140;-90
2022/08/02 14:20:24;;;;;;;1.13;1.10;;;23.00;49.60;;;;;;5937919;24;20166;-91
2022/08/02 14:22:53;;;;;;;1.02;1.00;;;23.00;49.60;;;;;;5936441;24;20159;-90
2022/08/02 14:25:22;;;;;;;1.45;1.20;;;23.00;49.50;;;;;;5950276;23;20158;-89
2022/08/02 14:27:57;;;;;;;1.20;1.10;;;23.00;49.50;;;;;;6020793;23;20185;-90
2022/08/02 14:30:34;;;;;;;1.30;1.20;;;23.00;49.50;;;;;;5990028;23;20150;-91
2022/08/02 14:33:02;;;;;;;1.42;1.33;;;23.00;49.30;;;;;;5992782;23;20633;-89
2022/08/02 14:35:34;;;;;;;1.10;1.10;;;23.10;49.30;;;;;;5992847;23;20241;-91
2022/08/02 14:38:05;;;;;;;1.15;1.10;;;23.00;49.20;;;;;;5964347;23;20485;-91
2022/08/02 14:40:42;;;;;;;0.95;0.95;;;23.10;49.20;;;;;;5954067;24;20211;-91
2022/08/02 14:46:07;;;;;;;1.20;1.10;;;23.00;49.10;;;;;;5908414;24;20157;-91
2022/08/02 14:48:42;;;;;;;1.23;1.10;;;23.00;49.00;;;;;;5881913;24;20185;-90
2022/08/02 14:51:46;;;;;;;1.30;1.20;;;23.10;48.90;;;;;;5871618;24;20185;-89
2022/08/02 14:54:30;;;;;;;1.20;1.10;;;23.10;48.90;;;;;;5852383;24;20199;-90
2022/08/02 14:57:02;;;;;;;1.20;1.10;;;23.10;48.90;;;;;;5823252;24;20212;-92
2022/08/02 14:59:32;;;;;;;1.00;1.00;;;23.20;48.60;;;;;;5845510;24;20194;-91
2022/08/02 15:02:01;;;;;;;1.13;1.02;;;23.20;48.50;;;;;;5865309;24;20161;-91
2022/08/02 15:04:32;;;;;;;1.20;1.10;;;23.20;48.30;;;;;;5872001;24;20165;-89
2022/08/02 15:07:14;;;;;;;;;;;;;;;;;;;;;
2022/08/02 15:09:43;;;;;;;1.15;1.05;;;23.20;48.20;;;;;;5863918;24;20237;-90
2022/08/02 15:12:18;;;;;;;1.15;1.10;;;23.20;48.00;;;;;;5864750;24;20599;-91
2022/08/02 15:14:58;;;;;;;1.10;1.00;;;23.20;47.90;;;;;;5899185;24;20575;-90
2022/08/02 15:17:30;;;;;;;1.08;1.00;;;23.20;47.90;;;;;;5892212;24;20168;-91
2022/08/02 15:20:21;;;;;;;1.00;1.00;;;23.20;47.70;;;;;;5898876;24;20286;-90
2022/08/02 15:23:43;;;;;;;;;;;;;;;;;;;;;
2022/08/02 15:26:27;;;;;;;1.25;1.15;;;23.00;48.30;;;;;;5976434;24;20254;-90
2022/08/02 21:52:35;;;;;;;2.33;2.13;;;21.90;54.90;;;;;;6214630;23;21041;-93
2022/08/02 21:55:40;;;;;;;2.33;2.13;;;21.90;54.80;;;;;;6097472;23;20160;-92
2022/08/02 21:59:23;;;;;;;2.65;2.45;;;21.90;54.90;;;;;;6011584;23;20670;-91
2022/08/02 22:02:05;;;;;;;;;;;;;;;;;;;;;
2022/08/02 22:08:21;;;;;;;2.70;2.50;;;21.90;54.90;;;;;;5970088;24;20192;-91
2022/08/02 22:11:33;;;;;;;2.70;2.50;;;21.90;54.90;;;;;;5928096;24;20233;-91
2022/08/02 22:14:30;;;;;;;2.70;2.50;;;22.00;54.90;;;;;;5796022;24;20171;-91
2022/08/02 22:17:27;;;;;;;2.25;2.13;;;21.90;54.90;;;;;;5792940;24;20160;-91
2022/08/02 22:20:25;;;;;;;2.78;2.58;;;21.90;54.90;;;;;;5791869;24;20160;-91
2022/08/02 22:23:44;;;;;;;;;;;;;;;;;;;;;
2022/08/02 22:26:45;;;;;;;;;;;;;;;;;;;;;
